Time;durP1;ratioP1;P1;durP2;ratioP2;P2;SDS_P1;SDS_P2;PMS_P1;PMS_P2;Temp;Humidity;BMP_temperature;BMP_pressure;BME280_temperature;BME280_humidity;BME280_pressure;Samples;Min_cycle;Max_cycle;Signal;HPM_P1;HPM_P2
2023/09/22 00:01:00;;;;;;;10.15;3.67;;;;;;;20.51;61.86;98394.63;4354682;32;33483;-87
2023/09/22 00:03:31;;;;;;;13.10;3.78;;;;;;;20.44;62.03;98382.59;4357865;32;33730;-88
2023/09/22 00:05:58;;;;;;;10.98;4.43;;;;;;;20.56;61.88;98382.97;4345202;32;33744;-87
2023/09/22 00:08:26;;;;;;;14.68;4.90;;;;;;;20.47;62.15;98378.06;4351928;32;33308;-88
2023/09/22 00:10:54;;;;;;;11.40;4.30;;;;;;;20.34;62.87;98385.59;4363132;32;34357;-88
2023/09/22 00:13:22;;;;;;;9.57;4.00;;;;;;;20.50;62.35;98371.88;4345349;32;34049;-87
2023/09/22 00:15:49;;;;;;;9.32;4.47;;;;;;;20.48;62.46;98382.41;4359010;32;33998;-87
2023/09/22 00:18:17;;;;;;;11.50;4.80;;;;;;;20.37;63.30;98374.94;4359009;32;34505;-86
2023/09/22 00:20:45;;;;;;;10.75;4.72;;;;;;;20.39;63.11;98383.63;4357236;32;33711;-88
2023/09/22 00:23:15;;;;;;;9.23;4.15;;;;;;;20.44;62.93;98390.50;4342815;32;34626;-87
2023/09/22 00:25:42;;;;;;;13.23;4.62;;;;;;;20.32;63.57;98386.56;4342783;33;34489;-87
2023/09/22 00:28:13;;;;;;;11.27;4.40;;;;;;;20.52;62.67;98388.44;4344162;33;35045;-88
2023/09/22 00:30:41;;;;;;;13.52;4.93;;;;;;;20.42;62.89;98388.78;4343032;32;32815;-89
2023/09/22 00:33:09;;;;;;;11.80;5.00;;;;;;;20.37;63.28;98377.56;4349005;32;33653;-87
2023/09/22 00:35:36;;;;;;;12.02;4.20;;;;;;;20.52;63.02;98380.53;4345022;32;33804;-88
2023/09/22 00:38:04;;;;;;;13.65;4.75;;;;;;;20.52;63.08;98375.28;4344890;33;35342;-87
2023/09/22 00:40:31;;;;;;;13.07;5.10;;;;;;;20.33;64.06;98375.97;4346262;33;34807;-87
2023/09/22 00:43:10;;;;;;;10.32;4.85;;;;;;;20.34;64.15;98380.34;4355796;32;34115;-88
2023/09/22 00:45:45;;;;;;;10.50;4.60;;;;;;;20.38;64.28;98374.03;4359760;32;34141;-87
2023/09/22 00:48:21;;;;;;;9.93;5.28;;;;;;;20.38;64.37;98370.50;4347540;32;35164;-87
2023/09/22 00:50:50;;;;;;;9.10;4.40;;;;;;;20.52;64.31;98375.28;4361118;32;34692;-87
2023/09/22 00:53:17;;;;;;;9.73;5.05;;;;;;;20.47;64.23;98372.81;4354583;32;33942;-87
2023/09/22 00:55:48;;;;;;;10.88;4.35;;;;;;;20.39;64.42;98374.88;4344693;33;34166;-87
2023/09/22 00:58:16;;;;;;;14.30;4.53;;;;;;;20.49;64.26;98375.34;4344939;33;34861;-88
2023/09/22 01:00:49;;;;;;;9.35;4.30;;;;;;;20.64;63.59;98374.78;4355109;32;33488;-87
2023/09/22 01:03:17;;;;;;;12.20;4.68;;;;;;;20.55;63.57;98372.53;4352125;32;33222;-88
2023/09/22 01:05:46;;;;;;;14.77;4.15;;;;;;;20.61;63.47;98374.91;4353455;32;32815;-86
2023/09/22 01:08:14;;;;;;;12.90;4.18;;;;;;;20.65;63.18;98376.50;4359804;32;34176;-86
2023/09/22 01:10:44;;;;;;;10.40;4.20;;;;;;;20.49;63.75;98380.63;4351207;32;34216;-87
2023/09/22 01:13:13;;;;;;;14.05;4.12;;;;;;;20.47;63.67;98382.47;4347498;32;34580;-88
2023/09/22 01:15:41;;;;;;;8.68;3.70;;;;;;;20.46;63.80;98380.78;4356780;32;33772;-88
2023/09/22 01:18:12;;;;;;;11.82;3.65;;;;;;;20.48;63.39;98376.28;4355371;32;33947;-87
2023/09/22 01:20:44;;;;;;;11.32;3.72;;;;;;;20.36;63.66;98375.84;4349329;32;34512;-88
2023/09/22 01:23:12;;;;;;;9.55;3.50;;;;;;;20.51;63.29;98381.47;4356589;32;34728;-87
2023/09/22 01:25:43;;;;;;;11.02;4.10;;;;;;;20.47;63.18;98379.84;4345956;32;33715;-87
2023/09/22 01:28:12;;;;;;;9.52;3.80;;;;;;;20.46;63.25;98375.50;4344701;32;34988;-85
2023/09/22 01:30:40;;;;;;;9.10;3.85;;;;;;;20.52;62.99;98376.13;4335411;32;33577;-87
2023/09/22 01:33:08;;;;;;;13.90;4.25;;;;;;;20.46;63.07;98371.09;4349571;32;34197;-87
2023/09/22 01:35:37;;;;;;;11.73;4.45;;;;;;;20.47;62.98;98369.31;4347246;32;33944;-87
2023/09/22 01:38:23;;;;;;;9.43;4.35;;;;;;;20.52;63.04;98373.50;4348672;32;34329;-87
2023/09/22 01:40:52;;;;;;;9.30;4.40;;;;;;;20.40;63.44;98368.69;4357458;32;33691;-87
2023/09/22 01:43:19;;;;;;;10.10;4.32;;;;;;;20.37;63.56;98369.66;4345844;32;33635;-86
2023/09/22 01:45:46;;;;;;;9.27;4.20;;;;;;;20.27;64.20;98372.75;4355874;32;33895;-88
2023/09/22 01:48:14;;;;;;;10.27;4.85;;;;;;;20.35;64.23;98379.41;4353266;32;35083;-88
2023/09/22 01:50:42;;;;;;;10.10;4.15;;;;;;;20.25;64.38;98377.19;4361677;32;33641;-87
2023/09/22 01:53:10;;;;;;;11.40;4.80;;;;;;;20.23;64.54;98385.16;4358881;32;34011;-86
2023/09/22 01:55:40;;;;;;;9.18;4.72;;;;;;;20.31;64.29;98382.22;4370745;32;34584;-86
2023/09/22 01:58:08;;;;;;;11.38;4.43;;;;;;;20.25;64.48;98383.31;4359265;32;33449;-87
2023/09/22 02:00:36;;;;;;;9.75;4.28;;;;;;;20.20;64.55;98379.16;4359075;32;34507;-87
2023/09/22 02:03:05;;;;;;;11.20;4.60;;;;;;;20.21;64.56;98376.44;4358496;32;34129;-86
2023/09/22 02:05:34;;;;;;;11.93;4.80;;;;;;;20.02;65.09;98370.19;4359980;32;34681;-88
2023/09/22 02:08:01;;;;;;;9.38;4.62;;;;;;;20.25;64.32;98375.41;4360522;32;34025;-86
2023/09/22 02:10:29;;;;;;;8.75;4.37;;;;;;;20.32;63.79;98379.53;4360290;32;33302;-85
2023/09/22 02:12:57;;;;;;;12.02;4.68;;;;;;;20.18;64.33;98373.94;4362921;32;33981;-87
2023/09/22 02:15:26;;;;;;;8.48;5.05;;;;;;;20.06;64.74;98377.91;4360525;32;34573;-87
2023/09/22 02:17:54;;;;;;;12.93;4.60;;;;;;;20.02;64.87;98378.94;4351522;32;32966;-87
2023/09/22 02:20:22;;;;;;;7.95;4.10;;;;;;;20.07;64.66;98373.50;4359392;32;32849;-87
2023/09/22 02:22:53;;;;;;;13.32;4.70;;;;;;;20.14;64.38;98380.25;4348042;32;33716;-87
2023/09/22 02:25:22;;;;;;;10.90;4.80;;;;;;;20.04;65.35;98378.88;4350950;32;33263;-86
2023/09/22 02:27:52;;;;;;;9.02;4.50;;;;;;;20.13;64.86;98373.28;4350809;32;34510;-87
2023/09/22 02:30:20;;;;;;;12.35;5.40;;;;;;;20.06;65.00;98371.78;4359727;32;33489;-87
2023/09/22 02:32:49;;;;;;;12.18;5.18;;;;;;;19.93;65.76;98367.00;4357954;32;33527;-84
2023/09/22 02:35:18;;;;;;;11.95;5.35;;;;;;;19.76;67.09;98369.37;4359024;32;34903;-87
2023/09/22 02:37:46;;;;;;;9.88;5.05;;;;;;;19.85;66.54;98365.56;4346471;32;33845;-85
2023/09/22 02:40:16;;;;;;;19.70;5.80;;;;;;;19.65;67.77;98361.03;4352351;32;33228;-86
2023/09/22 02:42:44;;;;;;;8.38;4.43;;;;;;;19.74;67.17;98360.72;4359518;32;33810;-86
2023/09/22 02:45:12;;;;;;;8.13;4.45;;;;;;;19.88;66.93;98357.56;4356886;32;33898;-86
2023/09/22 02:47:41;;;;;;;12.90;5.65;;;;;;;20.12;65.92;98361.03;4359020;32;34164;-85
2023/09/22 02:50:11;;;;;;;10.20;5.40;;;;;;;19.50;68.97;98356.31;4358816;32;33712;-86
2023/09/22 02:52:39;;;;;;;11.07;5.57;;;;;;;19.78;67.86;98357.06;4359132;32;33989;-85
2023/09/22 02:55:07;;;;;;;12.27;5.30;;;;;;;19.76;68.26;98352.75;4359718;32;34040;-86
2023/09/22 02:57:36;;;;;;;11.90;5.40;;;;;;;19.71;68.57;98354.72;4351141;32;34380;-86
2023/09/22 03:00:20;;;;;;;11.25;5.30;;;;;;;19.58;68.87;98356.88;4345560;32;33569;-86
2023/09/22 03:02:49;;;;;;;;;;;;;;;19.70;68.73;98353.84;4343890;32;33698;-84
2023/09/22 03:05:18;;;;;;;19.12;6.93;;;;;;;19.57;69.52;98357.81;4354296;32;34343;-87
2023/09/22 03:07:48;;;;;;;12.27;6.10;;;;;;;19.62;69.19;98355.88;4370874;32;34530;-86
2023/09/22 03:10:16;;;;;;;13.23;5.60;;;;;;;19.74;68.66;98355.47;4358402;32;34590;-85
2023/09/22 03:12:44;;;;;;;12.45;5.28;;;;;;;19.55;69.59;98355.25;4357326;32;33324;-85
2023/09/22 03:15:12;;;;;;;13.32;6.10;;;;;;;19.75;68.86;98356.31;4359019;32;34943;-86
2023/09/22 03:17:42;;;;;;;10.93;5.95;;;;;;;19.25;70.71;98357.19;4357261;32;34865;-87
2023/09/22 03:20:13;;;;;;;11.30;5.80;;;;;;;19.67;69.22;98348.69;4357509;32;33565;-85
2023/09/22 03:22:42;;;;;;;14.00;6.53;;;;;;;19.78;69.02;98350.94;4350638;32;34136;-86
2023/09/22 03:25:10;;;;;;;13.57;6.55;;;;;;;19.82;68.67;98342.88;4369103;32;34937;-86
2023/09/22 03:27:38;;;;;;;21.33;6.80;;;;;;;19.79;69.01;98342.97;4348537;32;33761;-83
2023/09/22 03:30:10;;;;;;;13.50;6.53;;;;;;;19.62;69.63;98341.00;4362819;32;33854;-86
2023/09/22 03:32:39;;;;;;;12.77;6.18;;;;;;;19.76;69.31;98343.09;4358414;32;33927;-85
2023/09/22 03:35:08;;;;;;;10.82;6.18;;;;;;;19.74;69.06;98347.56;4356183;32;33811;-84
2023/09/22 03:37:36;;;;;;;12.65;6.85;;;;;;;19.70;69.54;98345.97;4349602;32;34383;-84
2023/09/22 03:40:14;;;;;;;10.57;6.50;;;;;;;19.59;69.91;98345.47;4345364;32;33666;-86
2023/09/22 03:42:44;;;;;;;10.77;6.68;;;;;;;19.80;69.07;98349.09;4345001;32;34040;-87
2023/09/22 03:45:13;;;;;;;13.48;6.20;;;;;;;19.85;68.63;98347.13;4354352;32;34694;-85
2023/09/22 03:47:41;;;;;;;11.63;6.30;;;;;;;19.58;69.85;98346.37;4357781;32;34045;-84
2023/09/22 03:50:10;;;;;;;13.80;5.90;;;;;;;19.85;68.83;98336.62;4344430;33;33528;-85
2023/09/22 03:52:42;;;;;;;13.52;7.03;;;;;;;19.90;68.85;98346.06;4355663;32;33903;-85
2023/09/22 03:55:11;;;;;;;13.90;6.50;;;;;;;19.51;70.81;98350.13;4362017;32;34283;-85
2023/09/22 03:57:40;;;;;;;12.35;6.90;;;;;;;19.88;69.20;98341.75;4349040;32;34970;-86
2023/09/22 04:00:17;;;;;;;13.43;6.68;;;;;;;19.85;69.35;98337.50;4344566;32;33523;-85
2023/09/22 04:02:46;;;;;;;16.05;7.57;;;;;;;19.77;69.69;98344.78;4344900;32;33753;-85
2023/09/22 04:05:14;;;;;;;14.98;7.37;;;;;;;19.63;70.42;98347.97;4342910;32;34784;-86
2023/09/22 04:07:42;;;;;;;14.55;7.43;;;;;;;19.62;70.55;98340.09;4343204;32;34769;-85
2023/09/22 04:10:10;;;;;;;12.23;8.20;;;;;;;19.63;70.61;98347.09;4345302;32;33715;-85
2023/09/22 04:12:38;;;;;;;13.07;8.07;;;;;;;19.67;70.56;98340.81;4360623;32;34701;-84
2023/09/22 04:15:06;;;;;;;15.55;8.32;;;;;;;19.60;70.79;98344.56;4360838;32;34963;-85
2023/09/22 04:17:34;;;;;;;13.25;7.20;;;;;;;19.53;70.97;98343.91;4359935;32;34183;-86
2023/09/22 04:20:07;;;;;;;17.92;8.82;;;;;;;19.52;71.32;98350.09;4357945;32;33422;-86
2023/09/22 04:22:35;;;;;;;15.68;8.25;;;;;;;19.52;71.32;98350.09;4356301;32;34651;-86
2023/09/22 04:25:10;;;;;;;16.52;8.20;;;;;;;19.45;71.59;98351.22;4347988;32;33702;-85
2023/09/22 04:27:46;;;;;;;12.93;8.23;;;;;;;19.36;72.05;98349.78;4348755;32;35061;-86
2023/09/22 04:30:17;;;;;;;;;;;;;;;19.56;71.47;98356.09;4348699;32;32941;-84
2023/09/22 04:32:45;;;;;;;16.50;8.98;;;;;;;19.80;70.82;98343.84;4351514;32;34734;-87
2023/09/22 04:35:12;;;;;;;13.82;8.57;;;;;;;19.58;71.40;98346.37;4356191;32;33951;-87
2023/09/22 04:37:40;;;;;;;16.75;8.63;;;;;;;19.76;70.88;98350.97;4356968;32;33478;-84
2023/09/22 04:40:23;;;;;;;18.40;8.55;;;;;;;19.88;70.38;98353.13;4354792;32;33793;-83
2023/09/22 04:42:51;;;;;;;17.70;9.73;;;;;;;19.69;70.91;98360.84;4350820;32;34392;-84
2023/09/22 04:45:21;;;;;;;19.27;9.45;;;;;;;19.64;71.61;98369.84;4356094;32;33671;-84
2023/09/22 04:47:52;;;;;;;17.35;8.75;;;;;;;19.57;71.66;98369.16;4351233;32;34127;-87
2023/09/22 04:50:21;;;;;;;14.50;9.13;;;;;;;19.79;70.67;98366.66;4350846;32;33604;-86
2023/09/22 04:52:49;;;;;;;17.95;9.15;;;;;;;19.99;69.92;98368.53;4359323;32;33888;-87
2023/09/22 04:55:17;;;;;;;19.27;9.65;;;;;;;19.94;69.77;98370.47;4354868;32;34072;-87
2023/09/22 04:57:45;;;;;;;15.07;8.45;;;;;;;19.93;69.91;98376.66;4349545;32;34831;-86
2023/09/22 05:00:15;;;;;;;19.30;8.38;;;;;;;20.11;69.18;98375.94;4349399;32;33778;-86
2023/09/22 05:02:43;;;;;;;16.75;8.88;;;;;;;20.08;69.03;98376.09;4347136;32;33652;-87
2023/09/22 05:05:12;;;;;;;19.00;8.82;;;;;;;20.02;69.01;98378.94;4350453;32;33742;-87
2023/09/22 05:07:39;;;;;;;14.85;8.95;;;;;;;19.96;69.23;98380.94;4344649;32;34657;-86
2023/09/22 05:10:07;;;;;;;15.57;8.77;;;;;;;19.93;69.54;98377.53;4348190;32;33601;-86
2023/09/22 05:12:38;;;;;;;20.80;8.57;;;;;;;20.08;69.21;98385.75;4356386;32;31972;-85
2023/09/22 05:15:06;;;;;;;16.15;8.18;;;;;;;20.14;68.85;98391.63;4360007;32;34714;-87
2023/09/22 05:17:34;;;;;;;14.10;8.32;;;;;;;20.12;69.08;98397.88;4361430;32;34824;-84
2023/09/22 05:20:12;;;;;;;15.63;8.88;;;;;;;20.15;69.15;98389.84;4347012;32;34498;-87
2023/09/22 05:22:40;;;;;;;17.52;8.77;;;;;;;20.29;69.10;98391.94;4346085;32;33180;-87
2023/09/22 05:25:08;;;;;;;15.07;8.45;;;;;;;20.09;70.04;98387.47;4345382;33;34004;-87
2023/09/22 05:27:36;;;;;;;18.00;9.75;;;;;;;20.31;69.31;98387.50;4349473;32;33669;-85
2023/09/22 05:30:06;;;;;;;18.77;9.00;;;;;;;20.30;69.30;98383.97;4348169;32;34639;-85
2023/09/22 05:32:34;;;;;;;17.25;9.57;;;;;;;20.30;69.44;98381.34;4354752;32;34215;-86
2023/09/22 05:35:02;;;;;;;13.75;9.20;;;;;;;20.37;69.22;98374.94;4344243;32;33438;-87
2023/09/22 05:37:31;;;;;;;19.02;9.55;;;;;;;20.36;69.37;98375.84;4366857;32;34120;-85
2023/09/22 05:39:59;;;;;;;14.93;9.07;;;;;;;20.37;69.68;98371.44;4374350;32;34117;-86
2023/09/22 05:42:28;;;;;;;18.52;9.15;;;;;;;20.37;69.78;98372.28;4371386;32;33964;-86
2023/09/22 05:44:55;;;;;;;15.80;8.63;;;;;;;20.64;69.13;98372.13;4348774;32;34828;-89
2023/09/22 05:47:23;;;;;;;17.48;8.70;;;;;;;20.51;69.86;98368.31;4356629;32;34078;-88
2023/09/22 05:49:51;;;;;;;17.33;9.23;;;;;;;20.62;69.29;98371.38;4352664;32;33595;-87
2023/09/22 05:52:20;;;;;;;19.12;9.60;;;;;;;20.60;69.59;98375.81;4359463;32;33030;-88
2023/09/22 05:54:48;;;;;;;19.35;9.95;;;;;;;20.89;68.72;98370.22;4359021;32;33542;-88
2023/09/22 05:57:16;;;;;;;17.98;8.73;;;;;;;20.76;69.30;98379.56;4359113;32;34501;-85
2023/09/22 05:59:43;;;;;;;16.67;8.30;;;;;;;20.92;67.95;98382.41;4354193;32;33399;-84
2023/09/22 06:02:11;;;;;;;16.98;8.98;;;;;;;21.06;67.94;98381.81;4371050;32;33683;-87
2023/09/22 06:04:39;;;;;;;15.35;8.75;;;;;;;21.05;68.11;98385.37;4358879;32;34958;-86
2023/09/22 06:07:12;;;;;;;16.10;8.65;;;;;;;21.05;68.53;98390.66;4356675;32;34173;-88
2023/09/22 06:09:40;;;;;;;15.45;7.85;;;;;;;21.26;67.42;98389.75;4371257;32;33773;-86
2023/09/22 06:12:08;;;;;;;17.37;8.20;;;;;;;21.16;68.06;98396.31;4366932;32;34106;-85
2023/09/22 06:14:35;;;;;;;20.30;8.25;;;;;;;21.36;67.54;98392.87;4360154;32;34137;-85
2023/09/22 06:17:03;;;;;;;17.02;8.35;;;;;;;21.60;66.59;98397.09;4360533;32;34039;-85
2023/09/22 06:19:30;;;;;;;15.73;7.32;;;;;;;21.52;67.08;98396.56;4354711;32;33744;-85
2023/09/22 06:21:59;;;;;;;12.82;7.55;;;;;;;21.46;66.85;98394.19;4357839;32;34762;-86
2023/09/22 06:24:27;;;;;;;13.27;7.00;;;;;;;21.65;66.69;98396.88;4368594;32;34703;-87
2023/09/22 06:26:56;;;;;;;19.23;8.13;;;;;;;21.77;66.04;98396.31;4349063;32;33976;-86
2023/09/22 06:29:23;;;;;;;17.77;8.40;;;;;;;21.88;65.43;98403.75;4356613;32;33569;-85
2023/09/22 06:31:51;;;;;;;14.90;7.85;;;;;;;21.81;65.22;98402.31;4347248;32;32618;-85
2023/09/22 06:34:19;;;;;;;13.55;7.05;;;;;;;21.76;65.18;98405.16;4344848;32;34641;-86
2023/09/22 06:36:48;;;;;;;14.48;7.00;;;;;;;21.57;65.60;98401.63;4350386;32;34301;-88
2023/09/22 06:39:16;;;;;;;15.50;7.55;;;;;;;21.90;64.19;98399.28;4356720;32;33344;-86
2023/09/22 06:41:44;;;;;;;14.02;7.00;;;;;;;22.05;64.07;98409.13;4352606;32;34394;-86
2023/09/22 06:44:12;;;;;;;12.40;6.85;;;;;;;22.09;63.95;98417.75;4344287;32;33756;-85
2023/09/22 06:46:40;;;;;;;15.48;7.50;;;;;;;21.89;64.69;98413.38;4358108;32;34863;-88
2023/09/22 06:49:08;;;;;;;12.93;7.40;;;;;;;21.94;65.01;98418.47;4353045;32;34386;-86
2023/09/22 06:51:37;;;;;;;16.70;7.62;;;;;;;21.93;65.03;98411.44;4345421;33;33831;-86
2023/09/22 06:54:05;;;;;;;18.00;7.55;;;;;;;22.24;64.45;98422.38;4347729;32;34347;-86
2023/09/22 06:56:34;;;;;;;14.50;7.25;;;;;;;21.93;65.00;98420.22;4359083;32;33641;-86
2023/09/22 06:59:17;;;;;;;14.60;7.60;;;;;;;21.76;65.66;98410.44;4349150;32;33741;-88
2023/09/22 07:01:44;;;;;;;15.52;7.12;;;;;;;21.94;65.27;98423.75;4345600;32;33518;-94
2023/09/22 07:04:12;;;;;;;12.93;7.18;;;;;;;22.20;64.40;98420.81;4358072;32;34015;-86
2023/09/22 07:06:41;;;;;;;14.93;6.87;;;;;;;22.25;64.80;98420.59;4345721;32;34217;-86
2023/09/22 07:09:11;;;;;;;17.33;7.22;;;;;;;22.22;64.00;98432.13;4345467;32;34343;-88
2023/09/22 07:11:42;;;;;;;16.08;7.12;;;;;;;22.33;64.54;98435.12;4349715;32;34038;-88
2023/09/22 07:14:09;;;;;;;16.37;6.60;;;;;;;22.47;64.44;98431.84;4348535;32;33998;-88
2023/09/22 07:16:37;;;;;;;19.52;7.35;;;;;;;22.61;63.23;98436.47;4353268;32;35008;-87
2023/09/22 07:19:05;;;;;;;19.08;6.62;;;;;;;22.74;62.35;98440.25;4349676;32;33727;-87
2023/09/22 07:21:34;;;;;;;12.60;6.93;;;;;;;22.85;61.80;98434.44;4349402;32;34301;-87
2023/09/22 07:24:03;;;;;;;11.50;6.37;;;;;;;22.93;62.61;98429.66;4357785;32;33978;-87
2023/09/22 07:26:30;;;;;;;13.52;6.97;;;;;;;22.94;61.99;98427.88;4358181;32;34138;-86
2023/09/22 07:29:00;;;;;;;16.52;6.12;;;;;;;23.03;61.20;98432.69;4347500;32;34779;-87
2023/09/22 07:31:30;;;;;;;17.12;6.40;;;;;;;22.98;60.23;98430.28;4346558;32;33841;-87
2023/09/22 07:33:59;;;;;;;15.02;5.72;;;;;;;22.95;60.88;98429.56;4355692;32;33810;-87
2023/09/22 07:36:26;;;;;;;15.63;6.75;;;;;;;23.02;60.92;98441.56;4349642;32;33708;-85
2023/09/22 07:38:54;;;;;;;13.45;6.22;;;;;;;22.88;61.09;98441.34;4351599;32;33926;-88
2023/09/22 07:41:22;;;;;;;16.95;6.30;;;;;;;23.09;60.67;98437.69;4356340;32;34193;-87
2023/09/22 07:43:52;;;;;;;17.50;5.97;;;;;;;23.09;60.55;98442.97;4350952;32;34979;-86
2023/09/22 07:46:22;;;;;;;13.38;5.93;;;;;;;23.27;60.19;98447.34;4346248;32;34257;-86
2023/09/22 07:48:53;;;;;;;15.80;7.18;;;;;;;23.28;59.69;98454.34;4365322;32;33874;-85
2023/09/22 07:51:22;;;;;;;16.83;6.62;;;;;;;23.38;60.02;98453.91;4352272;32;33943;-85
2023/09/22 07:53:49;;;;;;;18.85;7.47;;;;;;;23.53;59.61;98453.09;4356408;32;33762;-87
2023/09/22 07:56:18;;;;;;;16.37;6.03;;;;;;;23.45;59.55;98445.56;4355830;32;33535;-86
2023/09/22 07:58:46;;;;;;;15.80;6.05;;;;;;;23.52;59.93;98452.25;4355501;32;34615;-87
2023/09/22 08:01:35;;;;;;;16.25;5.87;;;;;;;23.51;59.42;98450.53;4352834;32;33470;-86
2023/09/22 08:04:03;;;;;;;18.08;6.18;;;;;;;23.70;58.79;98439.03;4360616;32;34191;-87
2023/09/22 08:06:31;;;;;;;13.35;5.80;;;;;;;23.71;59.09;98444.22;4361303;32;33972;-87
2023/09/22 08:08:59;;;;;;;17.17;6.15;;;;;;;24.20;57.96;98444.25;4350659;32;33397;-85
2023/09/22 08:11:27;;;;;;;15.55;5.75;;;;;;;24.28;56.74;98447.38;4374582;32;34246;-91
2023/09/22 08:13:54;;;;;;;16.55;6.97;;;;;;;24.03;56.90;98446.97;4374067;32;34216;-87
2023/09/22 08:16:22;;;;;;;15.23;6.10;;;;;;;24.12;57.60;98446.47;4354194;32;34047;-93
2023/09/22 08:18:50;;;;;;;24.77;7.32;;;;;;;23.95;57.90;98449.19;4347029;32;34217;-87
2023/09/22 08:21:17;;;;;;;15.80;6.10;;;;;;;24.13;57.62;98448.22;4348537;32;33732;-88
2023/09/22 08:23:45;;;;;;;19.23;5.47;;;;;;;24.20;57.51;98451.34;4346643;33;34340;-86
2023/09/22 08:26:18;;;;;;;15.07;5.82;;;;;;;24.07;57.00;98448.53;4346404;33;34924;-88
2023/09/22 08:28:47;;;;;;;18.80;5.53;;;;;;;24.21;56.39;98439.84;4345394;33;33462;-89
2023/09/22 08:31:14;;;;;;;16.90;5.57;;;;;;;24.25;56.60;98444.88;4346518;33;33866;-88
2023/09/22 08:33:42;;;;;;;17.27;5.20;;;;;;;24.45;56.18;98448.28;4370229;32;35092;-87
2023/09/22 08:36:11;;;;;;;20.73;5.85;;;;;;;24.82;55.09;98462.13;4359106;32;34128;-84
2023/09/22 08:38:38;;;;;;;13.38;5.32;;;;;;;24.68;55.74;98460.25;4352808;32;33605;-88
2023/09/22 08:41:06;;;;;;;19.23;5.03;;;;;;;24.89;54.50;98456.38;4353730;32;33415;-90
2023/09/22 08:43:35;;;;;;;12.68;5.18;;;;;;;25.09;53.68;98455.22;4362990;32;33004;-85
2023/09/22 08:46:02;;;;;;;15.02;5.60;;;;;;;25.05;53.64;98453.72;4346583;33;34800;-86
2023/09/22 08:48:30;;;;;;;17.30;5.10;;;;;;;24.82;54.24;98456.81;4346298;33;33696;-89
2023/09/22 08:50:58;;;;;;;16.70;5.47;;;;;;;24.97;54.62;98451.50;4346863;33;33953;-88
2023/09/22 08:53:27;;;;;;;16.17;5.50;;;;;;;25.38;53.64;98450.03;4346511;33;34814;-85
2023/09/22 08:55:55;;;;;;;15.25;4.50;;;;;;;25.15;53.84;98454.91;4345916;32;35135;-88
2023/09/22 08:58:22;;;;;;;17.05;5.72;;;;;;;25.37;53.57;98458.97;4361243;32;34461;-91
2023/09/22 09:00:51;;;;;;;17.33;5.68;;;;;;;25.73;51.92;98455.91;4361645;32;34054;-92
2023/09/22 09:03:20;;;;;;;18.33;5.32;;;;;;;25.67;52.56;98453.63;4359845;32;34890;-91
2023/09/22 09:05:49;;;;;;;19.02;5.37;;;;;;;25.84;52.21;98447.34;4348326;32;34489;-90
2023/09/22 09:08:18;;;;;;;13.32;5.03;;;;;;;25.65;52.25;98451.06;4347503;32;33314;-90
2023/09/22 09:10:47;;;;;;;16.98;5.22;;;;;;;26.01;51.48;98446.28;4359782;32;34808;-85
2023/09/22 09:13:18;;;;;;;11.27;4.75;;;;;;;26.15;51.81;98439.19;4361027;32;34950;-92
2023/09/22 09:15:48;;;;;;;12.75;4.47;;;;;;;26.48;51.15;98443.34;4361063;32;33051;-91
2023/09/22 09:18:23;;;;;;;15.35;4.82;;;;;;;26.62;49.17;98435.31;4360093;32;33403;-88
2023/09/22 09:21:10;;;;;;;13.20;3.47;;;;;;;26.81;48.88;98429.66;4359775;32;33767;-87
2023/09/22 09:23:53;;;;;;;11.93;3.67;;;;;;;27.42;45.45;98419.44;4347467;32;33994;-92
2023/09/22 09:26:27;;;;;;;14.23;3.85;;;;;;;27.44;45.73;98417.53;4361193;32;33819;-88
2023/09/22 09:28:55;;;;;;;14.95;4.12;;;;;;;27.46;45.98;98418.28;4356067;32;34442;-82
2023/09/22 09:31:46;;;;;;;16.58;4.30;;;;;;;27.29;45.79;98415.91;4354636;32;33812;-84
2023/09/22 09:34:15;;;;;;;15.38;4.05;;;;;;;27.02;45.99;98410.59;4350544;32;33016;-86
2023/09/22 09:36:42;;;;;;;12.18;3.70;;;;;;;27.13;45.46;98416.94;4369041;32;34164;-82
2023/09/22 09:39:12;;;;;;;21.08;4.35;;;;;;;27.28;45.36;98401.75;4375969;32;33653;-85
2023/09/22 09:41:42;;;;;;;18.40;4.35;;;;;;;27.27;45.97;98409.84;4362478;32;34025;-84
2023/09/22 09:44:10;;;;;;;11.25;3.20;;;;;;;27.24;45.76;98402.03;4368884;32;33929;-86
2023/09/22 09:46:40;;;;;;;13.38;4.00;;;;;;;27.24;45.50;98410.03;4360517;32;34120;-86
2023/09/22 09:49:11;;;;;;;11.43;3.10;;;;;;;27.54;44.26;98400.00;4360887;32;33327;-86
2023/09/22 09:51:40;;;;;;;15.82;4.30;;;;;;;27.30;45.96;98394.50;4357502;32;87678;-83
2023/09/22 09:54:08;;;;;;;12.07;3.10;;;;;;;27.46;45.41;98388.97;4359237;32;34130;-83
2023/09/22 09:56:41;;;;;;;13.50;3.55;;;;;;;27.47;43.73;98385.37;4359992;32;34084;-85
2023/09/22 09:59:10;;;;;;;15.40;3.70;;;;;;;27.65;42.85;98383.25;4353245;32;34612;-84
2023/09/22 10:01:39;;;;;;;18.60;4.85;;;;;;;27.75;43.43;98378.16;4348535;32;33693;-84
2023/09/22 10:04:07;;;;;;;20.85;4.85;;;;;;;27.83;43.73;98386.47;4357831;32;33946;-90
2023/09/22 10:06:35;;;;;;;14.90;5.50;;;;;;;27.84;43.81;98372.19;4356942;32;33880;-86
2023/09/22 10:09:16;;;;;;;14.38;4.10;;;;;;;27.69;44.55;98383.88;4345303;33;34436;-86
2023/09/22 10:11:44;;;;;;;14.60;3.87;;;;;;;27.84;43.35;98382.84;4356981;32;34093;-87
2023/09/22 10:14:42;;;;;;;14.27;3.85;;;;;;;27.78;43.07;98372.63;4346335;33;33871;-85
2023/09/22 10:17:22;;;;;;;17.27;3.55;;;;;;;28.03;42.89;98364.59;4345894;33;34946;-84
2023/09/22 10:19:50;;;;;;;15.98;3.78;;;;;;;28.00;42.45;98370.16;4344698;33;34434;-84
2023/09/22 10:22:18;;;;;;;12.80;3.72;;;;;;;27.85;42.62;98363.25;4345501;33;33671;-86
2023/09/22 10:24:46;;;;;;;13.23;3.55;;;;;;;27.73;42.58;98359.63;4332669;33;33991;-88
2023/09/22 10:27:28;;;;;;;12.02;3.40;;;;;;;27.71;43.08;98366.00;4345900;33;34316;-87
2023/09/22 10:29:55;;;;;;;11.60;3.87;;;;;;;27.99;42.83;98371.09;4344649;33;34091;-87
2023/09/22 10:32:27;;;;;;;14.32;3.55;;;;;;;28.06;42.38;98371.50;4345830;33;34835;-87
2023/09/22 10:35:09;;;;;;;11.82;3.17;;;;;;;28.04;42.89;98363.66;4345721;33;34234;-87
2023/09/22 10:37:37;;;;;;;13.50;3.20;;;;;;;28.48;41.93;98351.59;4345593;33;34146;-89
2023/09/22 10:40:11;;;;;;;12.98;3.45;;;;;;;28.55;41.54;98360.84;4344246;33;34684;-83
2023/09/22 10:42:41;;;;;;;13.37;3.30;;;;;;;28.33;41.68;98353.53;4344519;33;34661;-87
2023/09/22 10:45:10;;;;;;;10.90;3.17;;;;;;;28.55;40.65;98360.84;4344258;33;34045;-85
2023/09/22 10:47:45;;;;;;;13.70;3.20;;;;;;;28.74;40.29;98359.47;4344206;33;33931;-86
2023/09/22 10:50:22;;;;;;;13.77;3.17;;;;;;;28.91;40.06;98353.75;4344446;33;33663;-90
2023/09/22 10:52:51;;;;;;;13.05;2.87;;;;;;;28.45;40.27;98367.84;4349125;32;33932;-89
2023/09/22 10:55:26;;;;;;;13.90;3.12;;;;;;;28.39;40.48;98354.94;4359937;32;34704;-85
2023/09/22 10:57:55;;;;;;;13.40;3.03;;;;;;;28.56;40.17;98353.69;4358035;32;34462;-88
2023/09/22 11:00:23;;;;;;;12.23;3.05;;;;;;;28.89;38.75;98346.81;4359173;32;33703;-85
2023/09/22 11:02:51;;;;;;;21.80;3.75;;;;;;;29.00;38.62;98346.87;4360784;32;33709;-87
2023/09/22 11:05:19;;;;;;;15.88;3.05;;;;;;;28.86;38.73;98334.53;4359430;32;34634;-87
2023/09/22 11:07:48;;;;;;;12.55;3.33;;;;;;;28.81;39.35;98339.37;4360151;32;34116;-85
2023/09/22 11:10:21;;;;;;;10.88;2.87;;;;;;;29.11;37.20;98324.72;4360402;32;34526;-86
2023/09/22 11:12:54;;;;;;;12.43;3.37;;;;;;;29.10;37.00;98342.56;4351414;32;33875;-85
2023/09/22 11:15:22;;;;;;;12.93;3.00;;;;;;;29.00;36.75;98337.06;4346427;32;34156;-91
2023/09/22 11:17:50;;;;;;;14.50;2.62;;;;;;;29.39;36.81;98334.97;4348371;32;34322;-85
2023/09/22 11:20:21;;;;;;;11.75;2.53;;;;;;;29.67;35.74;98335.53;4359006;32;33523;-87
2023/09/22 11:22:50;;;;;;;12.73;3.22;;;;;;;29.69;36.35;98339.75;4358776;32;34608;-84
2023/09/22 11:25:18;;;;;;;14.10;2.83;;;;;;;29.72;35.96;98334.19;4358532;32;34269;-87
2023/09/22 11:27:49;;;;;;;10.90;3.03;;;;;;;29.45;37.29;98341.66;4359693;32;34112;-88
2023/09/22 11:30:21;;;;;;;13.27;3.72;;;;;;;29.60;37.60;98339.66;4358684;32;33338;-87
2023/09/22 11:32:48;;;;;;;20.12;3.17;;;;;;;29.55;36.52;98329.28;4359880;32;33543;-87
2023/09/22 11:35:29;;;;;;;11.60;3.47;;;;;;;29.80;35.77;98328.22;4360113;32;35078;-87
2023/09/22 11:37:56;;;;;;;13.45;3.42;;;;;;;29.71;35.69;98331.63;4359694;32;35446;-87